Flight Track Log - Related Links

Times and Time Zones

All times are in EDT time to prevent confusion due to time zone crossing. See the JZA449 flight status page for this flight to view local times or setup timezone preferences in your user account.

Time Position Orientation Groundspeed Altitude Reporting Facility
EDT Latitude Longitude Course Direction KTS MPH feet Rate Location/Type
Tue 01:51:03 AM 49.1667 -123.1833 287° West 100 115 100  Level Vancouver Center
Tue 01:52:03 AM 49.1833 -123.2667 291° West 170 196 2,000 2,250 Climbing Vancouver Center
Tue 01:53:03 AM 49.2000 -123.3333 360° North 200 230 4,600 2,700 Climbing Vancouver Center
Tue 01:54:03 AM 49.2500 -123.3333 360° North 220 253 7,400 2,350 Climbing Vancouver Center
Tue 01:55:03 AM 49.3167 -123.3333 334° Northwest 240 276 9,300 2,050 Climbing Vancouver Center
Tue 01:56:03 AM 49.3833 -123.3833 339° North 280 322 11,500 2,200 Climbing Vancouver Center
Tue 01:57:03 AM 49.4667 -123.4333 334° Northwest 290 334 13,700 2,200 Climbing Vancouver Center
Tue 01:58:03 AM 49.5333 -123.4833 339° North 300 345 15,900 2,150 Climbing Vancouver Center
Tue 01:59:03 AM 49.6167 -123.5333 333° Northwest 300 345 18,000 1,900 Climbing Vancouver Center
Tue 02:00:03 AM 49.7000 -123.6000 334° Northwest 310 357 19,700 1,650 Climbing Vancouver Center
Tue 02:01:03 AM 49.7667 -123.6500 337° Northwest 320 368 21,300 1,600 Climbing Vancouver Center
Tue 02:02:03 AM 49.8667 -123.7167 334° Northwest 320 368 22,900 1,350 Climbing Vancouver Center
Tue 02:03:03 AM 49.9333 -123.7667 342° North 320 368 24,000 1,000 Climbing Vancouver Center
Tue 02:04:03 AM 50.0333 -123.8167 327° Northwest 330 380 24,900 950 Climbing Vancouver Center
Tue 02:05:03 AM 50.1167 -123.9000 339° North 340 391 25,900 950 Climbing Vancouver Center
Tue 02:06:03 AM 50.2000 -123.9500 339° North 350 403 26,800 800 Climbing Vancouver Center
Tue 02:07:03 AM 50.2833 -124.0000 332° Northwest 360 414 27,500 650 Climbing Vancouver Center
Tue 02:08:03 AM 50.3833 -124.0833 342° North 370 426 28,100 700 Climbing Vancouver Center
Tue 02:09:03 AM 50.4833 -124.1333 332° Northwest 370 426 28,900 750 Climbing Vancouver Center
Tue 02:10:03 AM 50.5833 -124.2167 339° North 370 426 29,600 650 Climbing Vancouver Center
Tue 02:11:03 AM 50.6667 -124.2667 332° Northwest 380 437 30,200 550 Climbing Vancouver Center
Tue 02:12:03 AM 50.7667 -124.3500 332° Northwest 380 437 30,700 500 Climbing Vancouver Center
Tue 02:13:03 AM 50.8667 -124.4333 339° North 380 437 31,200 400 Climbing Vancouver Center
Tue 02:14:03 AM 50.9500 -124.4833 336° Northwest 390 449 31,500 300 Climbing Vancouver Center
Tue 02:15:03 AM 51.0667 -124.5667 328° Northwest 390 449 31,800 250 Climbing Vancouver Center
Tue 02:16:03 AM 51.1500 -124.6500 343° North 390 449 32,000 100 Climbing Vancouver Center
Tue 02:17:03 AM 51.2500 -124.7000 336° Northwest 410 472 32,000  Level Vancouver Center
Tue 02:18:03 AM 51.3667 -124.7833 333° Northwest 420 483 32,000  Level Vancouver Center
Tue 02:19:03 AM 51.4667 -124.8667 336° Northwest 430 495 32,000  Level Vancouver Center
Tue 02:20:03 AM 51.5833 -124.9500 336° Northwest 430 495 32,000  Level Vancouver Center
Tue 02:21:03 AM 51.7000 -125.0333 336° Northwest 440 506 32,000  Level Vancouver Center
Tue 02:22:03 AM 51.8167 -125.1167 333° Northwest 440 506 32,000  Level Vancouver Center
Tue 02:23:03 AM 51.9167 -125.2000 332° Northwest 450 518 32,000  Level Vancouver Center
Tue 02:24:03 AM 52.0500 -125.3167 333° Northwest 450 518 32,000  Level Vancouver Center
Tue 02:25:03 AM 52.1500 -125.4000 336° Northwest 460 529 32,000  Level Vancouver Center
Tue 02:26:03 AM 52.2667 -125.4833 332° Northwest 450 518 32,000  Level Vancouver Center
Tue 02:27:03 AM 52.3833 -125.5833 337° Northwest 460 529 32,000  Level Vancouver Center
Tue 02:28:03 AM 52.5000 -125.6667 337° Northwest 460 529 32,000  Level Vancouver Center
Tue 02:29:03 AM 52.6167 -125.7500 337° Northwest 460 529 32,000  Level Vancouver Center
Tue 02:30:03 AM 52.7333 -125.8333 329° Northwest 460 529 32,000  Level Vancouver Center
Tue 02:31:03 AM 52.8500 -125.9500 329° Northwest 460 529 32,000  Level Vancouver Center
Tue 02:32:03 AM 52.9500 -126.0500 337° Northwest 460 529 32,000  Level Vancouver Center
Tue 02:33:03 AM 53.0667 -126.1333 337° Northwest 460 529 32,000  Level Vancouver Center
Tue 02:34:03 AM 53.1833 -126.2167 333° Northwest 460 529 32,000  Level Vancouver Center
Tue 02:35:03 AM 53.3000 -126.3167 337° Northwest 460 529 32,000  Level Vancouver Center
Tue 02:36:03 AM 53.4167 -126.4000 333° Northwest 460 529 32,000  Level Vancouver Center
Tue 02:37:03 AM 53.5333 -126.5000 329° Northwest 460 529 32,000  Level Vancouver Center
Tue 02:38:03 AM 53.6500 -126.6167 337° Northwest 460 529 32,000  Level Vancouver Center
Tue 02:39:03 AM 53.7667 -126.7000 333° Northwest 460 529 32,000  Level Vancouver Center
Tue 02:40:03 AM 53.8833 -126.8000 334° Northwest 460 529 32,000  Level Vancouver Center
Tue 02:41:03 AM 53.9833 -126.8833 333° Northwest 470 541 32,000  Level Vancouver Center
Tue 02:42:03 AM 54.1000 -126.9833 330° Northwest 460 529 32,000  Level Vancouver Center
Tue 02:43:03 AM 54.2333 -127.1167 334° Northwest 470 541 32,000  Level Vancouver Center
Tue 02:44:03 AM 54.3333 -127.2000 334° Northwest 460 529 32,000  Level Vancouver Center
Tue 02:45:03 AM 54.4500 -127.3000 337° Northwest 460 529 32,000  Level Vancouver Center
Tue 02:46:03 AM 54.5833 -127.4000 338° Northwest 460 529 32,000  Level Vancouver Center
Tue 02:47:03 AM 54.7000 -127.4833 328° Northwest 490 564 32,000  Level Vancouver Center
Tue 02:49:02 AM 54.9167 -127.7167 334° Northwest 470 541 32,000  Level Vancouver Center
Tue 02:50:02 AM 55.0333 -127.8167 334° Northwest 470 541 32,000  Level Vancouver Center
Tue 02:51:02 AM 55.1500 -127.9167 334° Northwest 470 541 32,000  Level Vancouver Center
Tue 02:52:02 AM 55.2667 -128.0167 326° Northwest 470 541 32,000  Level Vancouver Center
Tue 02:53:02 AM 55.3667 -128.1333 334° Northwest 470 541 32,000  Level Vancouver Center
Tue 02:56:02 AM 55.7333 -128.4500 334° Northwest 470 541 32,000  Level Vancouver Center
Tue 02:57:02 AM 55.8500 -128.5500 327° Northwest 480 552 32,000  Level Vancouver Center
Tue 02:58:02 AM 55.9667 -128.6833 334° Northwest 470 541 32,000  Level Vancouver Center
Tue 02:59:02 AM 56.0833 -128.7833 331° Northwest 470 541 32,000  Level Vancouver Center
Tue 03:00:02 AM 56.1833 -128.8833 328° Northwest 480 552 32,000  Level Vancouver Center
Tue 03:01:02 AM 56.3000 -129.0167 331° Northwest 470 541 32,000  Level Vancouver Center
Tue 03:02:02 AM 56.4167 -129.1333 338° Northwest 480 552 32,000  Level Vancouver Center
Tue 03:03:02 AM 56.5500 -129.2333 327° Northwest 480 552 32,000  Level Vancouver Center
Tue 03:04:02 AM 56.6500 -129.3500 328° Northwest 480 552 32,000  Level Vancouver Center
Tue 03:05:02 AM 56.7667 -129.4833 335° Northwest 480 552 32,000  Level Vancouver Center
Tue 03:06:02 AM 56.8833 -129.5833 319° Northwest 480 552 32,000  Level Vancouver Center
Tue 03:07:02 AM 57.0000 -129.7667 319° Northwest 480 552 32,000  Level Vancouver Center
Tue 03:08:02 AM 57.0833 -129.9000 325° Northwest 480 552 32,000  Level Vancouver Center
Tue 03:15:15 AM 57.7585 -130.7911 324° Northwest  Level FlightAware Approximate
Tue 03:16:15 AM 57.8516 -130.9172 323° Northwest  Level FlightAware Approximate
Tue 03:17:15 AM 57.9435 -131.0458 323° Northwest  Level FlightAware Approximate
Tue 03:18:15 AM 58.0353 -131.1751 336° Northwest  Level FlightAware Approximate
Tue 03:19:15 AM 58.1356 -131.2604 324° Northwest  Level FlightAware Approximate
Tue 03:20:15 AM 58.2284 -131.3878 324° Northwest  Level FlightAware Approximate
Tue 03:21:15 AM 58.3211 -131.5158 324° Northwest  Level FlightAware Approximate
Tue 03:22:15 AM 58.4136 -131.6445 324° Northwest  Level FlightAware Approximate
Tue 03:23:15 AM 58.5060 -131.7739 324° Northwest  Level FlightAware Approximate
Tue 03:24:15 AM 58.5983 -131.9040 324° Northwest  Level FlightAware Approximate
Tue 03:25:15 AM 58.6904 -132.0348 323° Northwest  Level FlightAware Approximate
Tue 03:26:15 AM 58.7824 -132.1662 323° Northwest  Level FlightAware Approximate
Tue 03:27:15 AM 58.8743 -132.2984 323° Northwest  Level FlightAware Approximate
Tue 03:28:15 AM 58.9660 -132.4313 323° Northwest  Level FlightAware Approximate
Tue 03:29:15 AM 59.0576 -132.5648 299° West  Level FlightAware Approximate
Tue 03:30:15 AM 59.1086 -132.7462 320° Northwest  Level FlightAware Approximate
Tue 03:31:15 AM 59.1960 -132.8905 317° Northwest  Level FlightAware Approximate
Tue 03:32:15 AM 59.2798 -133.0429 321° Northwest  Level FlightAware Approximate
Tue 03:33:15 AM 59.3689 -133.1831 325° Northwest  Level FlightAware Approximate
Tue 03:34:15 AM 59.4625 -133.3129 318° Northwest  Level FlightAware Approximate
Tue 03:35:15 AM 59.5480 -133.4629 319° Northwest  Level FlightAware Approximate
Tue 03:36:15 AM 59.6343 -133.6118 326° Northwest  Level FlightAware Approximate
Tue 03:37:15 AM 59.7287 -133.7402 316° Northwest  Level FlightAware Approximate
Tue 03:38:15 AM 59.8105 -133.8968 326° Northwest  Level FlightAware Approximate
Tue 03:39:15 AM 59.9058 -134.0231 326° Northwest  Level FlightAware Approximate
Tue 03:40:15 AM 60.0011 -134.1501 326° Northwest  Level FlightAware Approximate
Tue 03:41:15 AM 60.0962 -134.2779 300° West  Level FlightAware Approximate
Tue 03:42:15 AM 60.1497 -134.4659 316° Northwest  Level FlightAware Approximate
Tue 03:43:15 AM 60.2321 -134.6257 321° Northwest  Level FlightAware Approximate
Tue 03:44:15 AM 60.3212 -134.7703 339° North  Level FlightAware Approximate
Tue 03:45:15 AM 60.4281 -134.8533 339° North  Level FlightAware Approximate
Tue 03:46:15 AM 60.5352 -134.9352 338° Northwest  Level FlightAware Approximate
Tue 03:47:15 AM 60.6361 -135.0187 338° Northwest  Level FlightAware Approximate

Login

Don't have an account? Register now (free) for customized features, flight alerts, and more!